Time;durP1;ratioP1;P1;durP2;ratioP2;P2;SDS_P1;SDS_P2;PMS_P1;PMS_P2;Temp;Humidity;BMP_temperature;BMP_pressure;BME280_temperature;BME280_humidity;BME280_pressure;Samples;Min_cycle;Max_cycle;Signal;HPM_P1;HPM_P2
2022/02/14 00:02:16;;;;;;;6.88;3.00;;;;;;;;;;5094537;28;20052;-61
2022/02/14 00:04:43;;;;;;;5.28;2.60;;;;;;;;;;5094420;28;20054;-60
2022/02/14 00:07:10;;;;;;;6.15;2.50;;;;;;;;;;5094060;28;20052;-59
2022/02/14 00:09:39;;;;;;;6.32;2.70;;;;;;;;;;5094195;28;20512;-60
2022/02/14 00:12:06;;;;;;;6.07;2.55;;;;;;;;;;5094298;28;20139;-58
2022/02/14 00:14:33;;;;;;;4.57;2.53;;;;;;;;;;5094094;28;20408;-58
2022/02/14 00:17:00;;;;;;;5.03;2.53;;;;;;;;;;5094114;28;20056;-60
2022/02/14 00:19:27;;;;;;;8.13;2.88;;;;;;;;;;5093982;28;20479;-60
2022/02/14 00:21:54;;;;;;;5.15;2.50;;;;;;;;;;5094113;28;20048;-58
2022/02/14 00:24:21;;;;;;;5.55;2.60;;;;;;;;;;5093923;28;20059;-61
2022/02/14 00:26:53;;;;;;;6.05;2.40;;;;;;;;;;5093725;28;20051;-60
2022/02/14 00:29:20;;;;;;;5.30;2.65;;;;;;;;;;5093157;28;20051;-60
2022/02/14 00:31:47;;;;;;;5.65;2.58;;;;;;;;;;5094102;28;20126;-60
2022/02/14 00:34:15;;;;;;;4.28;2.30;;;;;;;;;;5106937;28;20480;-59
2022/02/14 00:36:43;;;;;;;5.22;2.60;;;;;;;;;;5101948;28;20040;-59
2022/02/14 00:39:10;;;;;;;4.07;2.55;;;;;;;;;;5101880;28;20057;-60
2022/02/14 00:41:37;;;;;;;5.07;2.25;;;;;;;;;;5102656;28;20082;-59
2022/02/14 00:44:06;;;;;;;4.45;2.55;;;;;;;;;;5094982;28;20151;-60
2022/02/14 00:46:33;;;;;;;5.93;2.70;;;;;;;;;;5093393;28;20489;-59
2022/02/14 00:49:00;;;;;;;3.67;2.10;;;;;;;;;;5093566;28;20051;-59
2022/02/14 00:51:27;;;;;;;5.35;2.33;;;;;;;;;;5093643;28;20044;-60
2022/02/14 00:53:54;;;;;;;3.97;2.13;;;;;;;;;;5093720;28;20085;-55
2022/02/14 00:56:21;;;;;;;5.85;2.38;;;;;;;;;;5109809;28;20075;-59
2022/02/14 00:58:48;;;;;;;4.00;1.80;;;;;;;;;;5113290;28;20043;-59
2022/02/14 01:01:17;;;;;;;4.53;2.20;;;;;;;;;;5113632;28;20126;-57
2022/02/14 01:03:44;;;;;;;4.68;2.20;;;;;;;;;;5113457;28;20109;-58
2022/02/14 01:06:11;;;;;;;4.57;1.90;;;;;;;;;;5113505;28;20054;-58
2022/02/14 01:08:38;;;;;;;5.93;2.08;;;;;;;;;;5113240;28;20054;-62
2022/02/14 01:11:05;;;;;;;4.40;2.13;;;;;;;;;;5113201;28;20050;-60
2022/02/14 01:13:32;;;;;;;4.53;1.98;;;;;;;;;;5113257;28;20162;-60
2022/02/14 01:15:59;;;;;;;4.85;1.90;;;;;;;;;;5113451;28;20130;-57
2022/02/14 01:18:28;;;;;;;3.65;1.92;;;;;;;;;;5113060;28;20055;-60
2022/02/14 01:20:55;;;;;;;4.50;1.75;;;;;;;;;;5113197;28;20138;-60
2022/02/14 01:23:22;;;;;;;3.28;1.75;;;;;;;;;;5113284;28;20133;-60
2022/02/14 01:25:49;;;;;;;4.32;1.80;;;;;;;;;;5113177;28;20124;-60
2022/02/14 01:28:16;;;;;;;3.70;1.63;;;;;;;;;;5112904;28;20132;-59
2022/02/14 01:30:43;;;;;;;3.35;1.80;;;;;;;;;;5113202;28;20069;-60
2022/02/14 01:33:10;;;;;;;2.97;1.75;;;;;;;;;;5113123;28;20083;-60
2022/02/14 01:35:39;;;;;;;4.00;1.70;;;;;;;;;;5113164;28;20087;-59
2022/02/14 01:38:06;;;;;;;5.15;2.30;;;;;;;;;;5112637;28;20052;-60
2022/02/14 01:40:33;;;;;;;3.58;1.92;;;;;;;;;;5111826;28;20063;-60
2022/02/14 01:43:00;;;;;;;4.28;2.00;;;;;;;;;;5112838;28;20412;-60
2022/02/14 01:45:27;;;;;;;4.18;1.90;;;;;;;;;;5112796;28;20092;-60
2022/02/14 01:47:54;;;;;;;4.70;2.08;;;;;;;;;;5112723;28;20054;-56
2022/02/14 01:50:21;;;;;;;4.03;1.85;;;;;;;;;;5113102;28;20126;-60
2022/02/14 01:52:53;;;;;;;2.97;1.42;;;;;;;;;;5112715;28;20571;-60
2022/02/14 01:55:21;;;;;;;4.13;1.80;;;;;;;;;;5104702;28;20458;-60
2022/02/14 01:57:51;;;;;;;2.97;1.45;;;;;;;;;;5092123;28;20603;-59
2022/02/14 02:00:20;;;;;;;3.33;1.48;;;;;;;;;;5092152;28;20097;-60
2022/02/14 02:02:47;;;;;;;3.22;1.40;;;;;;;;;;5092118;28;20059;-60
2022/02/14 02:05:14;;;;;;;2.35;1.45;;;;;;;;;;5092106;28;20052;-59
2022/02/14 02:07:42;;;;;;;3.95;1.50;;;;;;;;;;5091788;28;20058;-59
2022/02/14 02:10:12;;;;;;;5.25;1.38;;;;;;;;;;5092063;28;20135;-60
2022/02/14 02:12:48;;;;;;;1.95;1.08;;;;;;;;;;5092262;28;20482;-60
2022/02/14 02:15:15;;;;;;;2.53;1.10;;;;;;;;;;5092104;28;20055;-59
2022/02/14 02:17:43;;;;;;;3.10;1.27;;;;;;;;;;5091977;28;20420;-58
2022/02/14 02:20:14;;;;;;;2.53;1.42;;;;;;;;;;5091897;28;20056;-55
2022/02/14 02:22:41;;;;;;;;;;;;;;;;;;5092393;28;20048;-59
2022/02/14 02:25:10;;;;;;;2.63;1.00;;;;;;;;;;5091887;28;20292;-58
2022/02/14 02:27:37;;;;;;;3.83;1.48;;;;;;;;;;5091735;28;20417;-59
2022/02/14 02:30:07;;;;;;;3.53;1.38;;;;;;;;;;5092090;28;20052;-59
2022/02/14 02:32:35;;;;;;;2.28;1.13;;;;;;;;;;5091867;28;20044;-59
2022/02/14 02:35:02;;;;;;;3.75;1.30;;;;;;;;;;5092041;28;20044;-59
2022/02/14 02:37:29;;;;;;;3.45;1.20;;;;;;;;;;5091552;28;20052;-60
2022/02/14 02:39:57;;;;;;;3.53;1.20;;;;;;;;;;5092012;28;20124;-59
2022/02/14 02:42:25;;;;;;;2.92;1.30;;;;;;;;;;5091680;28;20052;-57
2022/02/14 02:44:53;;;;;;;4.93;1.30;;;;;;;;;;5091926;28;20058;-59
2022/02/14 02:47:23;;;;;;;1.98;1.20;;;;;;;;;;5091522;28;20048;-58
2022/02/14 02:49:50;;;;;;;1.77;1.10;;;;;;;;;;5091748;28;20135;-60
2022/02/14 02:52:19;;;;;;;3.00;1.20;;;;;;;;;;5094757;28;20130;-58
2022/02/14 02:54:47;;;;;;;2.78;1.30;;;;;;;;;;5099126;28;20079;-59
2022/02/14 02:57:14;;;;;;;2.78;1.25;;;;;;;;;;5115713;28;20066;-59
2022/02/14 02:59:44;;;;;;;2.55;1.27;;;;;;;;;;5115871;28;20423;-57
2022/02/14 03:02:12;;;;;;;2.80;1.30;;;;;;;;;;5115832;28;20096;-59
2022/02/14 03:04:39;;;;;;;3.13;1.10;;;;;;;;;;5115939;28;20059;-59
2022/02/14 03:07:06;;;;;;;4.93;1.48;;;;;;;;;;5115559;28;20491;-59
2022/02/14 03:09:33;;;;;;;2.60;1.20;;;;;;;;;;5115690;28;20075;-59
2022/02/14 03:12:00;;;;;;;3.13;1.30;;;;;;;;;;5115566;28;20410;-58
2022/02/14 03:14:27;;;;;;;1.80;0.98;;;;;;;;;;5115653;28;20056;-60
2022/02/14 03:16:56;;;;;;;2.83;1.10;;;;;;;;;;5115419;28;20485;-58
2022/02/14 03:19:23;;;;;;;3.33;1.10;;;;;;;;;;5115909;28;20047;-59
2022/02/14 03:21:50;;;;;;;2.58;1.00;;;;;;;;;;5115575;28;20047;-59
2022/02/14 03:24:17;;;;;;;2.47;0.98;;;;;;;;;;5115868;28;20051;-58
2022/02/14 03:26:44;;;;;;;1.95;1.00;;;;;;;;;;5115178;28;20131;-59
2022/02/14 03:29:14;;;;;;;2.63;1.10;;;;;;;;;;5115171;28;20047;-56
2022/02/14 03:31:41;;;;;;;1.88;1.08;;;;;;;;;;5115814;28;20138;-60
2022/02/14 03:34:10;;;;;;;2.72;1.30;;;;;;;;;;5115293;28;20043;-58
2022/02/14 03:36:37;;;;;;;2.80;1.30;;;;;;;;;;5115535;28;20124;-59
2022/02/14 03:39:07;;;;;;;2.90;1.23;;;;;;;;;;5115206;28;20043;-59
2022/02/14 03:41:33;;;;;;;3.60;1.25;;;;;;;;;;5115466;28;20058;-59
2022/02/14 03:44:00;;;;;;;2.90;1.30;;;;;;;;;;5115182;28;20054;-59
2022/02/14 03:46:27;;;;;;;2.92;1.30;;;;;;;;;;5114724;28;20043;-58
2022/02/14 03:48:55;;;;;;;2.25;1.20;;;;;;;;;;5114809;28;20044;-56
2022/02/14 03:51:23;;;;;;;2.83;1.23;;;;;;;;;;5115227;28;20454;-59
2022/02/14 03:53:50;;;;;;;2.67;1.13;;;;;;;;;;5114904;28;20146;-60
2022/02/14 03:56:17;;;;;;;3.45;1.17;;;;;;;;;;5098721;28;20051;-59
2022/02/14 03:58:44;;;;;;;2.22;1.10;;;;;;;;;;5094667;28;20433;-59
2022/02/14 04:01:11;;;;;;;2.55;1.00;;;;;;;;;;5094494;28;20427;-61
2022/02/14 04:03:38;;;;;;;2.15;0.90;;;;;;;;;;5093380;28;20058;-58
2022/02/14 04:06:05;;;;;;;6.03;1.40;;;;;;;;;;5094429;28;20048;-56
2022/02/14 04:08:34;;;;;;;3.30;1.33;;;;;;;;;;5094084;28;20054;-60
2022/02/14 04:11:01;;;;;;;2.88;1.08;;;;;;;;;;5094508;28;20128;-59
2022/02/14 04:13:28;;;;;;;2.80;1.25;;;;;;;;;;5094068;28;20087;-59
2022/02/14 04:15:55;;;;;;;2.22;1.13;;;;;;;;;;5094230;28;20040;-60
2022/02/14 04:18:22;;;;;;;3.00;1.40;;;;;;;;;;5093978;28;20398;-58
2022/02/14 04:20:49;;;;;;;2.75;0.90;;;;;;;;;;5094627;28;20131;-56
2022/02/14 04:23:16;;;;;;;2.05;1.13;;;;;;;;;;5115640;22;20053;-59
2022/02/14 04:25:44;;;;;;;4.90;1.50;;;;;;;;;;5114369;28;20134;-59
2022/02/14 04:28:11;;;;;;;2.65;1.40;;;;;;;;;;5120442;27;20495;-58
2022/02/14 04:30:38;;;;;;;3.83;1.40;;;;;;;;;;5134893;27;20162;-59
2022/02/14 04:33:06;;;;;;;4.55;1.50;;;;;;;;;;5134807;27;20130;-58
2022/02/14 04:35:33;;;;;;;3.72;1.40;;;;;;;;;;5134768;27;20058;-59
2022/02/14 04:38:01;;;;;;;2.58;1.30;;;;;;;;;;5134466;27;20055;-57
2022/02/14 04:40:29;;;;;;;4.55;1.52;;;;;;;;;;5134636;27;20055;-59
2022/02/14 04:42:59;;;;;;;3.95;1.42;;;;;;;;;;5134653;27;20137;-59
2022/02/14 04:45:26;;;;;;;3.78;1.73;;;;;;;;;;5134435;27;20043;-59
2022/02/14 04:47:53;;;;;;;3.88;1.98;;;;;;;;;;5134237;27;20054;-56
2022/02/14 04:50:20;;;;;;;4.78;1.70;;;;;;;;;;5134877;27;20515;-58
2022/02/14 04:52:48;;;;;;;3.70;1.70;;;;;;;;;;5134407;27;20055;-59
2022/02/14 04:55:15;;;;;;;2.75;1.48;;;;;;;;;;5134282;27;20050;-59
2022/02/14 04:57:42;;;;;;;3.97;1.50;;;;;;;;;;5134076;27;20138;-59
2022/02/14 05:00:13;;;;;;;4.60;1.70;;;;;;;;;;5134250;27;20049;-59
2022/02/14 05:02:40;;;;;;;3.15;1.50;;;;;;;;;;5134691;27;20051;-59
2022/02/14 05:05:08;;;;;;;3.58;1.20;;;;;;;;;;5134314;27;20053;-60
2022/02/14 05:07:35;;;;;;;4.15;1.50;;;;;;;;;;5133794;27;20130;-56
2022/02/14 05:10:02;;;;;;;4.20;1.52;;;;;;;;;;5134216;27;20381;-57
2022/02/14 05:12:29;;;;;;;4.25;1.63;;;;;;;;;;5134086;27;20050;-57
2022/02/14 05:14:56;;;;;;;3.83;1.48;;;;;;;;;;5133851;27;20055;-59
2022/02/14 05:17:25;;;;;;;5.13;1.63;;;;;;;;;;5134315;27;20470;-58
2022/02/14 05:19:52;;;;;;;2.65;1.33;;;;;;;;;;5134246;27;20587;-58
2022/02/14 05:22:19;;;;;;;1.90;1.00;;;;;;;;;;5134042;27;20046;-59
2022/02/14 05:24:45;;;;;;;2.80;1.23;;;;;;;;;;5134288;27;20051;-57
2022/02/14 05:27:12;;;;;;;3.22;1.33;;;;;;;;;;5134057;27;20483;-60
2022/02/14 05:29:39;;;;;;;2.78;1.33;;;;;;;;;;5134002;27;20130;-57
2022/02/14 05:32:07;;;;;;;2.55;1.30;;;;;;;;;;5134024;27;20050;-55
2022/02/14 05:34:35;;;;;;;4.40;1.60;;;;;;;;;;5133713;27;20065;-54
2022/02/14 05:37:03;;;;;;;4.07;1.50;;;;;;;;;;5133712;27;20130;-58
2022/02/14 05:39:30;;;;;;;3.80;1.58;;;;;;;;;;5133621;27;20055;-57
2022/02/14 05:41:57;;;;;;;2.97;1.23;;;;;;;;;;5134049;27;20057;-54
2022/02/14 05:44:24;;;;;;;4.70;1.38;;;;;;;;;;5133584;27;20133;-57
2022/02/14 05:46:51;;;;;;;3.30;1.30;;;;;;;;;;5133944;27;20522;-55
2022/02/14 05:49:18;;;;;;;3.67;1.48;;;;;;;;;;5133350;27;20051;-59
2022/02/14 05:51:46;;;;;;;4.05;1.10;;;;;;;;;;5133868;27;20080;-59
2022/02/14 05:54:13;;;;;;;3.17;1.45;;;;;;;;;;5133534;27;20047;-56
2022/02/14 05:56:40;;;;;;;3.30;1.60;;;;;;;;;;5133578;27;20050;-58
2022/02/14 05:59:07;;;;;;;3.80;1.80;;;;;;;;;;5133279;27;20053;-58
2022/02/14 06:01:34;;;;;;;3.67;1.30;;;;;;;;;;5133591;27;20058;-58
2022/02/14 06:04:01;;;;;;;2.90;1.30;;;;;;;;;;5133341;27;20078;-57
2022/02/14 06:06:28;;;;;;;2.20;1.20;;;;;;;;;;5133413;27;20043;-57
2022/02/14 06:08:56;;;;;;;3.70;1.40;;;;;;;;;;5133246;27;20043;-58
2022/02/14 06:11:23;;;;;;;3.58;1.23;;;;;;;;;;5133256;27;20082;-60
2022/02/14 06:13:50;;;;;;;4.07;1.58;;;;;;;;;;5133406;27;20078;-54
2022/02/14 06:16:17;;;;;;;3.22;1.45;;;;;;;;;;5133590;27;20137;-56
2022/02/14 06:18:44;;;;;;;3.15;1.30;;;;;;;;;;5133100;27;20051;-58
2022/02/14 06:21:11;;;;;;;4.80;1.40;;;;;;;;;;5133253;28;20126;-59
2022/02/14 06:23:39;;;;;;;4.25;1.23;;;;;;;;;;5133092;28;20134;-59
2022/02/14 06:26:07;;;;;;;4.97;1.30;;;;;;;;;;5134318;27;20126;-57
2022/02/14 06:28:38;;;;;;;3.67;1.48;;;;;;;;;;5137336;27;20046;-59
2022/02/14 06:31:06;;;;;;;3.35;1.40;;;;;;;;;;5138001;27;20047;-57
2022/02/14 06:33:33;;;;;;;2.58;1.30;;;;;;;;;;5137269;27;20058;-58
2022/02/14 06:36:00;;;;;;;4.07;1.52;;;;;;;;;;5137418;27;20134;-57
2022/02/14 06:38:27;;;;;;;4.28;1.40;;;;;;;;;;5137272;27;20049;-57
2022/02/14 06:40:55;;;;;;;2.75;1.50;;;;;;;;;;5138050;27;20076;-56
2022/02/14 06:43:23;;;;;;;3.72;1.50;;;;;;;;;;5137718;27;20130;-57
2022/02/14 06:45:50;;;;;;;3.97;1.70;;;;;;;;;;5137988;27;20407;-59
2022/02/14 06:48:18;;;;;;;6.57;1.98;;;;;;;;;;5137146;27;20047;-59
2022/02/14 06:50:45;;;;;;;4.60;1.95;;;;;;;;;;5137780;27;20619;-58
2022/02/14 06:53:13;;;;;;;4.65;2.50;;;;;;;;;;5137256;27;20389;-58
2022/02/14 06:55:40;;;;;;;3.78;1.75;;;;;;;;;;5136975;27;20055;-58
2022/02/14 06:58:07;;;;;;;3.97;1.58;;;;;;;;;;5136948;27;20053;-56
2022/02/14 07:00:36;;;;;;;3.63;1.75;;;;;;;;;;5137184;27;20051;-58
2022/02/14 07:03:04;;;;;;;4.72;1.50;;;;;;;;;;5137210;27;20523;-58
2022/02/14 07:05:31;;;;;;;4.05;2.03;;;;;;;;;;5136995;27;20077;-59
2022/02/14 07:07:58;;;;;;;4.32;1.40;;;;;;;;;;5137168;27;20413;-59
2022/02/14 07:10:25;;;;;;;3.72;1.60;;;;;;;;;;5136946;27;20047;-58
2022/02/14 07:12:52;;;;;;;4.70;1.92;;;;;;;;;;5136996;27;20071;-58
2022/02/14 07:15:21;;;;;;;3.58;1.50;;;;;;;;;;5137100;27;20073;-57
2022/02/14 07:17:50;;;;;;;4.63;1.70;;;;;;;;;;5136555;27;20392;-55
2022/02/14 07:20:18;;;;;;;5.75;2.03;;;;;;;;;;5136480;27;20082;-57
2022/02/14 07:22:45;;;;;;;7.18;2.15;;;;;;;;;;5136550;27;20047;-54
2022/02/14 07:25:12;;;;;;;4.43;1.90;;;;;;;;;;5136239;27;20130;-58
2022/02/14 07:27:40;;;;;;;4.63;1.70;;;;;;;;;;5136807;27;20126;-57
2022/02/14 07:30:09;;;;;;;6.25;2.22;;;;;;;;;;5136466;27;20038;-57
2022/02/14 07:32:37;;;;;;;5.32;2.00;;;;;;;;;;5137011;27;20083;-58
2022/02/14 07:35:07;;;;;;;6.20;2.25;;;;;;;;;;5136300;27;20050;-57
2022/02/14 07:37:34;;;;;;;4.95;1.92;;;;;;;;;;5136203;27;20055;-58
2022/02/14 07:40:01;;;;;;;4.38;2.08;;;;;;;;;;5136449;27;20501;-59
2022/02/14 07:42:31;;;;;;;3.47;1.77;;;;;;;;;;5136372;27;20049;-57
2022/02/14 07:44:59;;;;;;;5.10;2.20;;;;;;;;;;5136353;27;20066;-56
2022/02/14 07:47:26;;;;;;;7.70;3.13;;;;;;;;;;5136478;27;20466;-56
2022/02/14 07:49:53;;;;;;;5.93;1.92;;;;;;;;;;5135776;27;20047;-56
2022/02/14 07:52:23;;;;;;;6.00;2.10;;;;;;;;;;5135981;27;20054;-58
2022/02/14 07:54:51;;;;;;;7.95;2.17;;;;;;;;;;5135824;27;20503;-58
2022/02/14 07:57:18;;;;;;;4.75;2.13;;;;;;;;;;5135686;27;20047;-57
2022/02/14 07:59:46;;;;;;;3.90;1.70;;;;;;;;;;5135832;27;20047;-60
2022/02/14 08:02:13;;;;;;;4.10;1.80;;;;;;;;;;5135931;27;20478;-56
2022/02/14 08:04:43;;;;;;;4.85;2.40;;;;;;;;;;5135757;27;20130;-57
2022/02/14 08:07:10;;;;;;;5.13;1.77;;;;;;;;;;5135595;27;20054;-57
2022/02/14 08:09:39;;;;;;;3.85;1.70;;;;;;;;;;5133876;27;20061;-55
2022/02/14 08:12:08;;;;;;;6.35;1.98;;;;;;;;;;5133691;27;20068;-58
2022/02/14 08:14:35;;;;;;;4.45;2.05;;;;;;;;;;5134030;27;20495;-57
2022/02/14 08:17:02;;;;;;;6.25;3.20;;;;;;;;;;5133570;27;20047;-57
2022/02/14 08:19:29;;;;;;;4.50;2.13;;;;;;;;;;5133508;27;20138;-58
2022/02/14 08:21:56;;;;;;;5.90;2.13;;;;;;;;;;5133361;27;20043;-58
2022/02/14 08:24:23;;;;;;;5.20;2.22;;;;;;;;;;5133374;27;20126;-58
2022/02/14 08:26:52;;;;;;;7.18;2.70;;;;;;;;;;5133469;27;20055;-59
2022/02/14 08:29:19;;;;;;;5.53;2.20;;;;;;;;;;5133189;27;20492;-56
2022/02/14 08:31:47;;;;;;;4.75;1.90;;;;;;;;;;5133216;27;20510;-58
2022/02/14 08:34:14;;;;;;;6.80;2.10;;;;;;;;;;5133453;27;20440;-59
2022/02/14 08:36:43;;;;;;;4.85;2.00;;;;;;;;;;5133345;27;20055;-60
2022/02/14 08:39:10;;;;;;;6.53;2.28;;;;;;;;;;5133038;27;20096;-59
2022/02/14 08:41:37;;;;;;;6.15;3.17;;;;;;;;;;5133383;27;20549;-58
2022/02/14 08:44:06;;;;;;;7.03;2.25;;;;;;;;;;5133070;27;20051;-58
2022/02/14 08:46:33;;;;;;;5.35;2.00;;;;;;;;;;5133383;27;20051;-58
2022/02/14 08:49:01;;;;;;;5.45;2.35;;;;;;;;;;5132640;27;20063;-59
2022/02/14 08:51:28;;;;;;;5.72;2.28;;;;;;;;;;5132977;27;20035;-59
2022/02/14 08:53:57;;;;;;;8.30;2.60;;;;;;;;;;5132867;27;20134;-61
2022/02/14 08:56:25;;;;;;;6.70;3.42;;;;;;;;;;5133176;27;20049;-59
2022/02/14 08:58:52;;;;;;;9.82;4.55;;;;;;;;;;5132914;27;20099;-60
2022/02/14 09:01:20;;;;;;;4.43;2.55;;;;;;;;;;5134221;27;20055;-59
2022/02/14 09:03:47;;;;;;;4.80;2.35;;;;;;;;;;5135296;27;20067;-57
2022/02/14 09:08:45;;;;;;;9.65;4.22;;;;;;;;;;5051723;28;20095;-58
2022/02/14 09:11:12;;;;;;;6.47;3.42;;;;;;;;;;5051338;28;20049;-59
2022/02/14 09:13:40;;;;;;;9.75;4.30;;;;;;;;;;5050888;28;20515;-59
2022/02/14 09:16:08;;;;;;;5.70;2.17;;;;;;;;;;5051625;28;20127;-57
2022/02/14 09:18:38;;;;;;;9.85;5.50;;;;;;;;;;5050682;28;20506;-59
2022/02/14 09:21:06;;;;;;;4.90;2.60;;;;;;;;;;5050708;28;20143;-59
2022/02/14 09:23:33;;;;;;;6.47;2.03;;;;;;;;;;5048223;28;20481;-59
2022/02/14 09:26:00;;;;;;;5.85;2.40;;;;;;;;;;5050408;28;20512;-60
2022/02/14 09:28:28;;;;;;;3.40;1.70;;;;;;;;;;5050129;28;20405;-59
2022/02/14 09:30:55;;;;;;;6.13;2.03;;;;;;;;;;5050394;28;20052;-59
2022/02/14 09:33:24;;;;;;;6.15;2.10;;;;;;;;;;5050303;28;20473;-59
2022/02/14 09:35:53;;;;;;;5.43;2.25;;;;;;;;;;5050190;28;20061;-57
2022/02/14 09:38:20;;;;;;;6.43;2.20;;;;;;;;;;5049770;28;20524;-59
2022/02/14 09:40:47;;;;;;;4.70;2.00;;;;;;;;;;5050503;28;20474;-61
2022/02/14 09:43:15;;;;;;;3.50;1.70;;;;;;;;;;5050199;28;20059;-63
2022/02/14 09:45:43;;;;;;;4.25;1.77;;;;;;;;;;5051011;28;20468;-63
2022/02/14 09:48:13;;;;;;;6.28;2.30;;;;;;;;;;5050126;28;20053;-61
2022/02/14 09:50:42;;;;;;;5.10;1.83;;;;;;;;;;5050169;28;20049;-60
2022/02/14 09:53:11;;;;;;;5.22;2.47;;;;;;;;;;5050019;28;20270;-60
2022/02/14 09:55:39;;;;;;;5.18;2.30;;;;;;;;;;5039546;28;20059;-59
2022/02/14 09:58:07;;;;;;;5.57;1.80;;;;;;;;;;5030055;28;20506;-60
2022/02/14 10:00:34;;;;;;;4.32;1.90;;;;;;;;;;5029042;28;20530;-60
2022/02/14 10:03:13;;;;;;;5.32;1.98;;;;;;;;;;5030245;28;20053;-60
2022/02/14 10:05:45;;;;;;;4.22;1.65;;;;;;;;;;5030237;28;20049;-60
2022/02/14 10:08:19;;;;;;;5.38;1.80;;;;;;;;;;5030209;28;20045;-60
2022/02/14 10:10:47;;;;;;;6.97;2.60;;;;;;;;;;5030112;28;20052;-60
2022/02/14 10:13:30;;;;;;;13.30;5.38;;;;;;;;;;5030885;28;20119;-60
2022/02/14 10:15:57;;;;;;;8.32;4.25;;;;;;;;;;5030567;28;20410;-60
2022/02/14 10:18:29;;;;;;;4.30;2.03;;;;;;;;;;5029904;28;20050;-60
2022/02/14 10:21:14;;;;;;;9.15;3.45;;;;;;;;;;5029775;28;20160;-60
2022/02/14 10:23:57;;;;;;;9.02;4.00;;;;;;;;;;5030148;28;20538;-60
2022/02/14 10:26:27;;;;;;;5.57;2.70;;;;;;;;;;5030159;28;20053;-61
2022/02/14 10:28:54;;;;;;;6.50;1.70;;;;;;;;;;5029851;28;20057;-60
2022/02/14 10:31:21;;;;;;;3.40;1.50;;;;;;;;;;5029932;28;20053;-61
2022/02/14 10:33:51;;;;;;;4.03;1.85;;;;;;;;;;5029684;28;20341;-60
2022/02/14 10:36:26;;;;;;;5.43;1.90;;;;;;;;;;5030042;28;20084;-60
2022/02/14 10:38:55;;;;;;;5.00;1.95;;;;;;;;;;5030048;28;20591;-60
2022/02/14 10:41:23;;;;;;;5.45;1.85;;;;;;;;;;5030061;28;20142;-59
2022/02/14 10:43:50;;;;;;;5.32;1.83;;;;;;;;;;5029918;28;20041;-60
2022/02/14 10:46:22;;;;;;;5.75;1.70;;;;;;;;;;5029706;28;20049;-60
2022/02/14 10:48:54;;;;;;;5.63;1.50;;;;;;;;;;5029562;28;20136;-60
2022/02/14 10:51:21;;;;;;;3.58;1.45;;;;;;;;;;5029901;28;20545;-60
2022/02/14 10:53:50;;;;;;;8.38;2.30;;;;;;;;;;5029755;28;20072;-60
2022/02/14 10:56:19;;;;;;;4.85;1.98;;;;;;;;;;5045095;28;20077;-60
2022/02/14 10:58:47;;;;;;;3.95;1.70;;;;;;;;;;5049116;28;20394;-61
2022/02/14 11:01:15;;;;;;;4.47;1.92;;;;;;;;;;5049167;28;20087;-60
2022/02/14 11:03:43;;;;;;;6.07;2.55;;;;;;;;;;5049675;28;20088;-60
2022/02/14 11:06:11;;;;;;;6.53;3.20;;;;;;;;;;5049645;28;20056;-60
2022/02/14 11:08:38;;;;;;;7.20;2.85;;;;;;;;;;5049302;28;20049;-60
2022/02/14 11:11:09;;;;;;;5.13;1.70;;;;;;;;;;5049186;28;20056;-60
2022/02/14 11:13:39;;;;;;;7.43;2.55;;;;;;;;;;5052647;28;20116;-60
2022/02/14 11:16:06;;;;;;;4.45;2.30;;;;;;;;;;5053218;28;20053;-60
2022/02/14 11:18:36;;;;;;;4.93;2.10;;;;;;;;;;5052761;28;20049;-58
2022/02/14 11:21:04;;;;;;;3.30;1.90;;;;;;;;;;5053330;28;20140;-58
2022/02/14 11:23:39;;;;;;;5.10;1.70;;;;;;;;;;5053277;28;20571;-60
2022/02/14 11:26:16;;;;;;;5.85;1.70;;;;;;;;;;5056244;28;20063;-59
2022/02/14 11:28:49;;;;;;;5.95;2.63;;;;;;;;;;5090622;22;20054;-80
2022/02/14 11:31:18;;;;;;;8.75;3.15;;;;;;;;;;5105708;28;20436;-80
2022/02/14 11:33:53;;;;;;;5.25;2.08;;;;;;;;;;5102876;28;20044;-78
2022/02/14 11:36:20;;;;;;;5.25;2.38;;;;;;;;;;5102170;28;20048;-77
2022/02/14 11:38:50;;;;;;;7.28;3.35;;;;;;;;;;5107977;28;20053;-77
2022/02/14 11:41:29;;;;;;;9.07;3.88;;;;;;;;;;5114808;28;20047;-77
2022/02/14 11:44:16;;;;;;;15.10;5.43;;;;;;;;;;5114104;28;20523;-77
2022/02/14 11:46:43;;;;;;;6.30;3.63;;;;;;;;;;5113202;28;20043;-77
2022/02/14 11:49:15;;;;;;;10.70;3.97;;;;;;;;;;5113771;28;20104;-78
2022/02/14 11:51:44;;;;;;;7.82;3.20;;;;;;;;;;5114029;28;20066;-77
2022/02/14 11:54:33;;;;;;;7.65;2.88;;;;;;;;;;5114768;28;20083;-76
2022/02/14 11:57:28;;;;;;;9.68;2.92;;;;;;;;;;5093508;28;20048;-77
2022/02/14 12:00:23;;;;;;;6.45;2.33;;;;;;;;;;5093898;28;20052;-77
2022/02/14 12:03:18;;;;;;;5.60;1.90;;;;;;;;;;5092774;28;20088;-77
2022/02/14 12:05:47;;;;;;;6.22;2.03;;;;;;;;;;5092915;28;20051;-77
2022/02/14 12:08:15;;;;;;;5.93;2.33;;;;;;;;;;5093959;28;20418;-77
2022/02/14 12:10:48;;;;;;;5.82;2.88;;;;;;;;;;5095057;28;20106;-79
2022/02/14 12:13:17;;;;;;;5.90;2.28;;;;;;;;;;5095959;28;20080;-78
2022/02/14 12:21:22;;;;;;;6.90;2.45;;;;;;;;;;5093255;28;20059;-77
2022/02/14 12:23:50;;;;;;;5.75;2.22;;;;;;;;;;5091849;28;20044;-77
2022/02/14 12:26:19;;;;;;;5.75;2.30;;;;;;;;;;5093050;28;20055;-77
2022/02/14 12:29:31;;;;;;;5.35;2.20;;;;;;;;;;5094903;28;20048;-76
2022/02/14 12:31:44;;;;;;;8.30;2.33;;;;;;;;;;5093102;28;20052;-77
2022/02/14 12:34:11;;;;;;;8.48;2.75;;;;;;;;;;5093205;28;20056;-77
2022/02/14 12:36:38;;;;;;;8.02;2.15;;;;;;;;;;5092246;28;20067;-77
2022/02/14 12:39:05;;;;;;;6.82;2.22;;;;;;;;;;5092916;28;20059;-77
2022/02/14 12:41:34;;;;;;;7.55;2.33;;;;;;;;;;5092686;28;20045;-77
2022/02/14 12:44:01;;;;;;;6.88;2.80;;;;;;;;;;5092187;28;20130;-77
2022/02/14 12:46:30;;;;;;;10.63;5.72;;;;;;;;;;5092699;28;20499;-77
2022/02/14 12:49:03;;;;;;;13.80;6.22;;;;;;;;;;5092425;28;20070;-77
2022/02/14 12:51:31;;;;;;;14.25;6.28;;;;;;;;;;5095294;28;20054;-77
2022/02/14 12:54:00;;;;;;;9.43;3.75;;;;;;;;;;5113046;28;20072;-78
2022/02/14 12:56:29;;;;;;;6.75;3.20;;;;;;;;;;5094909;28;20109;-78
2022/02/14 12:58:57;;;;;;;8.52;2.88;;;;;;;;;;5092127;28;20055;-78
2022/02/14 13:01:27;;;;;;;6.25;2.63;;;;;;;;;;5092730;28;20052;-77
2022/02/14 13:03:55;;;;;;;7.93;2.55;;;;;;;;;;5092662;28;20095;-77
2022/02/14 13:06:35;;;;;;;6.10;2.80;;;;;;;;;;5092960;28;20109;-78
2022/02/14 13:09:03;;;;;;;7.18;2.30;;;;;;;;;;5092677;28;20513;-77
2022/02/14 13:11:30;;;;;;;7.53;3.20;;;;;;;;;;5096538;28;20414;-77
2022/02/14 13:13:57;;;;;;;8.85;2.42;;;;;;;;;;5097716;28;20051;-76
2022/02/14 13:16:28;;;;;;;6.28;2.85;;;;;;;;;;5096084;28;20566;-77
2022/02/14 13:18:55;;;;;;;10.73;4.50;;;;;;;;;;5115044;28;20139;-76
2022/02/14 13:21:24;;;;;;;5.53;3.53;;;;;;;;;;5115667;28;20051;-77
2022/02/14 13:23:56;;;;;;;8.73;4.22;;;;;;;;;;5117588;28;20043;-77
2022/02/14 13:26:25;;;;;;;7.93;4.13;;;;;;;;;;5119487;28;20063;-78
2022/02/14 13:28:52;;;;;;;7.50;3.95;;;;;;;;;;5119486;28;20079;-77
2022/02/14 13:31:23;;;;;;;7.95;3.47;;;;;;;;;;5119610;28;20482;-77
2022/02/14 13:33:51;;;;;;;10.65;4.20;;;;;;;;;;5117952;28;20055;-77
2022/02/14 13:36:18;;;;;;;7.25;4.30;;;;;;;;;;5122327;28;20043;-77
2022/02/14 13:38:47;;;;;;;9.20;4.40;;;;;;;;;;5133790;28;20051;-76
2022/02/14 13:41:24;;;;;;;9.30;4.88;;;;;;;;;;5138086;27;20042;-77
2022/02/14 13:43:51;;;;;;;13.27;4.57;;;;;;;;;;5126463;28;20036;-76
2022/02/14 13:46:27;;;;;;;9.30;4.30;;;;;;;;;;5136813;27;20066;-77
2022/02/14 13:48:54;;;;;;;8.05;4.25;;;;;;;;;;5129414;28;20059;-78
2022/02/14 13:51:22;;;;;;;8.05;3.78;;;;;;;;;;5121389;28;20050;-77
2022/02/14 13:53:56;;;;;;;8.45;4.07;;;;;;;;;;5117043;28;20136;-78
2022/02/14 13:56:23;;;;;;;15.35;8.23;;;;;;;;;;5099534;28;20052;-78
2022/02/14 13:58:52;;;;;;;9.73;5.55;;;;;;;;;;5094492;28;20119;-77
2022/02/14 14:01:27;;;;;;;14.77;6.70;;;;;;;;;;5095478;28;20048;-78
2022/02/14 14:03:56;;;;;;;10.63;5.65;;;;;;;;;;5095845;28;20052;-78
2022/02/14 14:06:25;;;;;;;10.68;4.97;;;;;;;;;;5093941;28;20047;-77
2022/02/14 14:08:52;;;;;;;7.13;4.75;;;;;;;;;;5095225;28;20051;-77
2022/02/14 14:11:28;;;;;;;10.00;4.93;;;;;;;;;;5095179;28;20052;-77
2022/02/14 14:13:55;;;;;;;8.50;4.72;;;;;;;;;;5094715;28;20048;-77
2022/02/14 14:16:22;;;;;;;8.93;4.20;;;;;;;;;;5094173;28;20059;-78
2022/02/14 14:18:49;;;;;;;10.43;5.43;;;;;;;;;;5093347;28;20048;-77
2022/02/14 14:21:17;;;;;;;7.55;5.45;;;;;;;;;;5094365;28;20044;-77
2022/02/14 14:23:45;;;;;;;8.20;4.95;;;;;;;;;;5092332;28;20052;-78
2022/02/14 14:26:12;;;;;;;10.68;5.30;;;;;;;;;;5091551;28;20059;-77
2022/02/14 14:28:42;;;;;;;8.68;4.90;;;;;;;;;;5090598;28;20093;-77
2022/02/14 14:31:09;;;;;;;11.48;5.70;;;;;;;;;;5095170;28;20044;-77
2022/02/14 14:33:36;;;;;;;7.78;4.72;;;;;;;;;;5099181;28;20521;-77
2022/02/14 14:36:04;;;;;;;9.20;5.10;;;;;;;;;;5099094;28;20048;-78
2022/02/14 14:38:32;;;;;;;8.88;4.65;;;;;;;;;;5099938;28;20089;-77
2022/02/14 14:40:59;;;;;;;8.50;4.47;;;;;;;;;;5102322;28;20134;-77
2022/02/14 14:43:26;;;;;;;7.72;3.65;;;;;;;;;;5101624;28;20071;-78
2022/02/14 14:45:54;;;;;;;7.57;3.53;;;;;;;;;;5099315;28;20044;-78
2022/02/14 14:48:21;;;;;;;11.73;4.93;;;;;;;;;;5101935;28;20392;-78
2022/02/14 14:50:48;;;;;;;7.90;3.88;;;;;;;;;;5104183;28;20066;-77
2022/02/14 14:53:15;;;;;;;8.50;4.40;;;;;;;;;;5106463;28;20040;-76
2022/02/14 14:55:44;;;;;;;8.35;4.20;;;;;;;;;;5105997;28;20043;-76
2022/02/14 14:58:11;;;;;;;8.18;3.92;;;;;;;;;;5114307;28;20095;-76
2022/02/14 15:00:39;;;;;;;9.35;4.22;;;;;;;;;;5109840;28;20062;-78